createdAt,value
2022-11-25T00:00:01.091Z,2.42
2022-11-25T00:02:28.983Z,2.31
2022-11-25T00:04:59.148Z,2.03
2022-11-25T00:07:30.950Z,2.17
2022-11-25T00:09:59.030Z,2.61
2022-11-25T00:12:28.424Z,2.51
2022-11-25T00:15:00.127Z,2.44
2022-11-25T00:17:27.937Z,2.26
2022-11-25T00:19:56.416Z,2.17
2022-11-25T00:22:24.135Z,2.12
2022-11-25T00:24:51.966Z,2.13
2022-11-25T00:27:19.922Z,2.16
2022-11-25T00:29:47.893Z,2.36
2022-11-25T00:32:17.241Z,2.28
2022-11-25T00:34:45.248Z,2.05
2022-11-25T00:37:13.243Z,2.03
2022-11-25T00:39:45.250Z,2.00
2022-11-25T00:42:30.572Z,2.18
2022-11-25T00:44:58.528Z,2.53
2022-11-25T00:47:29.560Z,2.45
2022-11-25T00:49:59.265Z,2.08
2022-11-25T00:52:28.366Z,2.32
2022-11-25T00:54:57.596Z,2.19
2022-11-25T00:57:25.661Z,2.29
2022-11-25T00:59:58.532Z,2.42
2022-11-25T01:02:29.056Z,2.26
2022-11-25T01:04:58.454Z,2.34
2022-11-25T01:07:26.031Z,2.32
2022-11-25T01:09:53.649Z,2.00
2022-11-25T01:12:21.128Z,2.05
2022-11-25T01:14:48.707Z,2.13
2022-11-25T01:17:16.624Z,1.97
2022-11-25T01:19:45.700Z,1.82
2022-11-25T01:22:13.193Z,1.91
2022-11-25T01:24:40.737Z,1.98
2022-11-25T01:27:08.235Z,2.22
2022-11-25T01:29:35.725Z,2.32
2022-11-25T01:32:03.347Z,2.43
2022-11-25T01:34:32.456Z,2.53
2022-11-25T01:37:01.309Z,2.46
2022-11-25T01:39:32.783Z,2.49
2022-11-25T01:42:00.823Z,2.38
2022-11-25T01:44:29.538Z,2.23
2022-11-25T01:47:01.607Z,2.33
2022-11-25T01:49:34.605Z,2.63
2022-11-25T01:52:10.590Z,2.65
2022-11-25T01:54:42.007Z,2.68
2022-11-25T01:57:12.930Z,2.70
2022-11-25T01:59:45.986Z,2.57
2022-11-25T02:02:14.441Z,2.60
2022-11-25T02:04:43.158Z,2.74
2022-11-25T02:07:15.941Z,2.61
2022-11-25T02:09:43.834Z,2.56
2022-11-25T02:12:11.757Z,2.66
2022-11-25T02:14:39.468Z,2.68
2022-11-25T02:17:07.203Z,2.64
2022-11-25T02:19:44.419Z,2.72
2022-11-25T02:22:22.629Z,2.68
2022-11-25T02:24:52.925Z,2.49
2022-11-25T02:27:24.586Z,2.39
2022-11-25T02:29:52.736Z,2.45
2022-11-25T02:32:23.084Z,2.39
2022-11-25T02:34:50.880Z,2.47
2022-11-25T02:37:20.415Z,2.44
2022-11-25T02:39:49.131Z,2.66
2022-11-25T02:42:18.085Z,2.63
2022-11-25T02:44:48.270Z,2.56
2022-11-25T02:47:16.129Z,2.45
2022-11-25T02:49:43.629Z,2.35
2022-11-25T02:52:11.163Z,2.38
2022-11-25T02:54:38.793Z,2.29
2022-11-25T02:57:06.360Z,2.33
2022-11-25T02:59:33.869Z,2.29
2022-11-25T03:02:02.931Z,2.42
2022-11-25T03:04:30.431Z,2.53
2022-11-25T03:06:57.953Z,2.56
2022-11-25T03:09:25.503Z,2.50
2022-11-25T03:12:10.554Z,2.37
2022-11-25T03:14:38.133Z,2.07
2022-11-25T03:17:07.068Z,2.10
2022-11-25T03:19:34.568Z,2.22
2022-11-25T03:22:02.100Z,2.34
2022-11-25T03:24:29.740Z,2.29
2022-11-25T03:26:57.300Z,2.39
2022-11-25T03:29:26.728Z,2.37
2022-11-25T03:31:54.280Z,2.33
2022-11-25T03:34:23.141Z,2.34
2022-11-25T03:36:50.757Z,2.24
2022-11-25T03:39:18.310Z,2.14
2022-11-25T03:41:45.845Z,2.29
2022-11-25T03:44:13.392Z,2.50
2022-11-25T03:46:40.921Z,2.45
2022-11-25T03:49:08.446Z,2.36
2022-11-25T03:51:37.623Z,2.40
2022-11-25T03:54:05.350Z,2.43
2022-11-25T03:56:32.930Z,2.56
2022-11-25T03:59:00.405Z,2.56
2022-11-25T04:01:27.988Z,2.61
2022-11-25T04:03:55.585Z,2.53
2022-11-25T04:06:23.929Z,2.56
2022-11-25T04:08:52.882Z,2.46
2022-11-25T04:11:20.393Z,2.52
2022-11-25T04:13:46.955Z,2.54
2022-11-25T04:16:21.739Z,2.56
2022-11-25T04:18:49.521Z,2.57
2022-11-25T04:21:17.887Z,2.43
2022-11-25T04:23:45.463Z,2.61
2022-11-25T04:26:14.335Z,2.58
2022-11-25T04:28:41.874Z,2.61
2022-11-25T04:31:10.115Z,2.60
2022-11-25T04:33:37.697Z,2.67
2022-11-25T04:36:05.676Z,2.69
2022-11-25T04:38:33.210Z,2.63
2022-11-25T04:41:00.725Z,2.58
2022-11-25T04:43:29.679Z,2.68
2022-11-25T04:46:26.905Z,2.64
2022-11-25T04:48:44.806Z,2.63
2022-11-25T04:51:12.397Z,2.54
2022-11-25T04:53:39.954Z,2.45
2022-11-25T04:56:08.160Z,2.60
2022-11-25T04:58:54.503Z,2.76
2022-11-25T05:01:22.123Z,2.92
2022-11-25T05:03:56.020Z,2.80
2022-11-25T05:06:23.820Z,2.56
2022-11-25T05:08:51.480Z,2.50
2022-11-25T05:11:19.319Z,2.68
2022-11-25T05:13:48.344Z,2.58
2022-11-25T05:16:15.880Z,2.65
2022-11-25T05:18:43.378Z,2.61
2022-11-25T05:21:11.160Z,2.48
2022-11-25T05:23:38.666Z,2.65
2022-11-25T05:26:06.435Z,2.63
2022-11-25T05:28:33.994Z,2.50
2022-11-25T05:31:02.958Z,2.78
2022-11-25T05:33:30.602Z,2.97
2022-11-25T05:35:59.624Z,2.90
2022-11-25T05:38:27.758Z,2.87
2022-11-25T05:40:55.610Z,3.02
2022-11-25T05:43:23.186Z,3.08
2022-11-25T05:45:50.777Z,3.06
2022-11-25T05:48:19.718Z,3.07
2022-11-25T05:50:47.271Z,3.05
2022-11-25T05:53:17.186Z,3.06
2022-11-25T05:55:44.858Z,3.21
2022-11-25T05:58:12.389Z,3.01
2022-11-25T06:00:39.925Z,2.99
2022-11-25T06:03:07.564Z,3.09
2022-11-25T06:05:36.953Z,3.10
2022-11-25T06:08:04.809Z,3.06
2022-11-25T06:10:32.366Z,3.06
2022-11-25T06:13:00.033Z,3.02
2022-11-25T06:15:27.534Z,3.10
2022-11-25T06:17:55.076Z,3.36
2022-11-25T06:20:22.631Z,3.25
2022-11-25T06:22:51.503Z,3.20
2022-11-25T06:25:19.248Z,3.49
2022-11-25T06:28:11.492Z,3.43
2022-11-25T06:30:34.282Z,3.35
2022-11-25T06:33:01.798Z,3.46
2022-11-25T06:35:29.311Z,3.58
2022-11-25T06:37:59.133Z,3.52
2022-11-25T06:40:26.872Z,3.32
2022-11-25T06:42:54.364Z,3.17
2022-11-25T06:45:21.874Z,3.20
2022-11-25T06:47:49.420Z,3.39
2022-11-25T06:50:17.054Z,3.44
2022-11-25T06:52:44.544Z,3.30
2022-11-25T06:55:13.419Z,3.36
2022-11-25T06:57:40.914Z,3.50
2022-11-25T07:00:09.692Z,3.62
2022-11-25T07:02:42.867Z,3.86
2022-11-25T07:05:12.957Z,3.82
2022-11-25T07:07:40.597Z,3.81
2022-11-25T07:10:09.547Z,3.70
2022-11-25T07:12:38.464Z,3.84
2022-11-25T07:15:07.292Z,3.84
2022-11-25T07:17:34.804Z,3.79
2022-11-25T07:20:02.397Z,3.87
2022-11-25T07:22:29.897Z,3.89
2022-11-25T07:24:57.417Z,3.98
2022-11-25T07:27:24.905Z,4.03
2022-11-25T07:30:29.034Z,3.93
2022-11-25T07:32:41.278Z,3.91
2022-11-25T07:35:09.326Z,3.92
2022-11-25T07:37:36.875Z,3.91
2022-11-25T07:40:05.078Z,3.93
2022-11-25T07:42:33.120Z,3.91
2022-11-25T07:45:01.987Z,3.89
2022-11-25T07:47:29.513Z,3.90
2022-11-25T07:49:57.426Z,3.95
2022-11-25T07:52:24.892Z,3.95
2022-11-25T07:54:53.990Z,4.02
2022-11-25T07:57:21.499Z,4.04
2022-11-25T07:59:49.036Z,4.12
2022-11-25T08:02:18.002Z,4.13
2022-11-25T08:04:45.781Z,4.19
2022-11-25T08:07:13.376Z,4.28
2022-11-25T08:09:40.931Z,4.36
2022-11-25T08:12:08.566Z,4.39
2022-11-25T08:14:36.482Z,4.44
2022-11-25T08:17:05.988Z,4.47
2022-11-25T08:19:35.973Z,4.53
2022-11-25T08:22:03.657Z,4.61
2022-11-25T08:24:34.497Z,4.63
2022-11-25T08:27:02.354Z,4.67
2022-11-25T08:29:29.921Z,4.71
2022-11-25T08:31:58.380Z,4.82
2022-11-25T08:34:26.457Z,4.91
2022-11-25T08:36:55.419Z,4.98
2022-11-25T08:42:11.437Z,5.04
2022-11-25T08:44:38.991Z,5.16
2022-11-25T08:47:06.538Z,5.24
2022-11-25T08:49:40.503Z,5.32
2022-11-25T08:52:11.260Z,5.32
2022-11-25T08:54:38.879Z,5.47
2022-11-25T08:57:06.401Z,5.53
2022-11-25T08:59:34.130Z,5.59
2022-11-25T09:02:02.124Z,5.68
2022-11-25T09:04:33.756Z,5.68
2022-11-25T09:07:01.683Z,5.66
2022-11-25T09:09:30.624Z,5.65
2022-11-25T09:11:58.238Z,5.82
2022-11-25T09:14:25.834Z,5.91
2022-11-25T09:16:53.595Z,5.85
2022-11-25T09:19:21.508Z,5.81
2022-11-25T09:21:49.127Z,5.87
2022-11-25T09:24:16.709Z,5.88
2022-11-25T09:26:45.962Z,5.99
2022-11-25T09:29:14.753Z,6.05
2022-11-25T09:31:42.552Z,5.99
2022-11-25T09:34:10.405Z,6.04
2022-11-25T09:36:38.511Z,6.09
2022-11-25T09:39:06.287Z,6.00
2022-11-25T09:42:07.499Z,6.01
2022-11-25T09:45:05.088Z,6.14
2022-11-25T09:47:45.210Z,6.32
2022-11-25T09:50:18.687Z,6.47
2022-11-25T09:52:54.480Z,6.30
2022-11-25T09:55:24.266Z,6.42
2022-11-25T09:58:00.478Z,6.51
2022-11-25T10:00:33.705Z,6.64
2022-11-25T10:03:05.536Z,6.61
2022-11-25T10:05:36.521Z,6.68
2022-11-25T10:08:10.657Z,6.69
2022-11-25T10:10:42.955Z,6.60
2022-11-25T10:13:18.526Z,6.72
2022-11-25T10:15:48.128Z,6.84
2022-11-25T10:18:21.242Z,6.81
2022-11-25T10:20:51.179Z,6.87
2022-11-25T10:23:27.853Z,7.05
2022-11-25T10:25:58.836Z,7.29
2022-11-25T10:28:32.794Z,7.37
2022-11-25T10:31:02.962Z,7.26
2022-11-25T10:33:33.710Z,7.21
2022-11-25T10:36:06.035Z,7.40
2022-11-25T10:38:41.343Z,7.51
2022-11-25T10:41:10.939Z,7.52
2022-11-25T10:43:39.794Z,7.61
2022-11-25T10:46:12.133Z,7.72
2022-11-25T10:48:50.117Z,7.53
2022-11-25T10:51:33.076Z,7.47
2022-11-25T10:54:18.732Z,7.40
2022-11-25T10:56:54.062Z,7.39
2022-11-25T10:59:28.167Z,7.40
2022-11-25T11:02:14.409Z,7.53
2022-11-25T11:04:52.319Z,7.54
2022-11-25T11:07:19.905Z,7.64
2022-11-25T11:09:48.712Z,7.52
2022-11-25T11:12:21.091Z,7.59
2022-11-25T11:14:50.318Z,7.53
2022-11-25T11:17:31.922Z,7.55
2022-11-25T11:20:14.617Z,7.62
2022-11-25T11:22:47.892Z,7.64
2022-11-25T11:25:27.505Z,7.84
2022-11-25T11:27:55.630Z,8.05
2022-11-25T11:30:26.680Z,8.18
2022-11-25T11:33:03.782Z,7.94
2022-11-25T11:35:49.430Z,7.93
2022-11-25T11:38:27.507Z,8.13
2022-11-25T11:40:58.900Z,8.22
2022-11-25T11:43:51.126Z,8.31
2022-11-25T11:46:31.930Z,8.41
2022-11-25T11:49:06.946Z,8.34
2022-11-25T11:51:41.487Z,8.43
2022-11-25T11:54:12.215Z,8.44
2022-11-25T11:56:41.703Z,8.41
2022-11-25T11:59:59.503Z,8.37
2022-11-25T12:02:37.301Z,8.13
2022-11-25T12:05:14.664Z,8.23
2022-11-25T12:07:48.018Z,8.26
2022-11-25T12:10:23.540Z,8.28
2022-11-25T12:12:54.509Z,8.38
2022-11-25T12:15:36.152Z,8.54
2022-11-25T12:18:12.707Z,8.63
2022-11-25T12:20:45.537Z,8.72
2022-11-25T12:23:17.612Z,8.86
2022-11-25T12:25:46.281Z,8.82
2022-11-25T12:28:18.258Z,8.80
2022-11-25T12:31:01.887Z,8.80
2022-11-25T12:33:41.765Z,8.80
2022-11-25T12:36:11.733Z,8.81
2022-11-25T12:38:43.372Z,8.70
2022-11-25T12:41:20.625Z,8.60
2022-11-25T12:43:51.290Z,8.60
2022-11-25T12:46:24.753Z,8.47
2022-11-25T12:48:54.837Z,8.51
2022-11-25T12:51:47.671Z,8.51
2022-11-25T12:54:29.120Z,8.67
2022-11-25T12:57:16.928Z,8.85
2022-11-25T13:00:17.527Z,8.97
2022-11-25T13:03:27.860Z,9.06
2022-11-25T13:06:02.411Z,9.15
2022-11-25T13:08:46.055Z,9.05
2022-11-25T13:11:36.036Z,9.09
2022-11-25T13:14:07.958Z,9.15
2022-11-25T13:16:36.453Z,9.24
2022-11-25T13:19:11.647Z,9.25
2022-11-25T13:21:57.068Z,9.35
2022-11-25T13:24:35.001Z,9.31
2022-11-25T13:27:05.105Z,9.20
2022-11-25T13:30:09.774Z,9.20
2022-11-25T13:32:40.178Z,9.11
2022-11-25T13:35:35.707Z,9.29
2022-11-25T13:38:31.848Z,9.46
2022-11-25T13:41:00.546Z,9.50
2022-11-25T13:43:28.281Z,9.55
2022-11-25T13:45:56.696Z,9.60
2022-11-25T13:48:25.978Z,9.57
2022-11-25T13:51:15.570Z,9.57
2022-11-25T13:53:51.933Z,9.49
2022-11-25T13:56:28.090Z,9.52
2022-11-25T13:59:36.641Z,9.56
2022-11-25T14:02:32.257Z,9.65
2022-11-25T14:05:05.736Z,9.69
2022-11-25T14:07:40.620Z,9.71
2022-11-25T14:10:26.968Z,9.70
2022-11-25T14:13:03.213Z,9.68
2022-11-25T14:15:34.252Z,9.61
2022-11-25T14:18:51.219Z,9.53
2022-11-25T14:21:27.627Z,9.63
2022-11-25T14:24:08.940Z,9.55
2022-11-25T14:26:55.619Z,9.73
2022-11-25T14:29:26.114Z,9.73
2022-11-25T14:31:57.063Z,9.72
2022-11-25T14:34:28.787Z,9.70
2022-11-25T14:37:04.699Z,9.76
2022-11-25T14:39:35.233Z,9.81
2022-11-25T14:42:07.151Z,9.91
2022-11-25T14:44:39.532Z,9.62
2022-11-25T14:47:08.434Z,9.53
2022-11-25T14:52:43.772Z,9.42
2022-11-25T14:55:12.808Z,9.50
2022-11-25T14:57:45.198Z,9.53
2022-11-25T15:00:15.374Z,9.48
2022-11-25T15:02:54.020Z,9.41
2022-11-25T15:05:23.697Z,9.38
2022-11-25T15:07:58.676Z,9.33
2022-11-25T15:10:39.243Z,9.32
2022-11-25T15:13:13.440Z,9.32
2022-11-25T15:15:41.108Z,9.24
2022-11-25T15:18:11.347Z,9.09
2022-11-25T15:20:38.899Z,9.02
2022-11-25T15:23:07.067Z,8.98
2022-11-25T15:25:34.579Z,8.89
2022-11-25T15:28:02.435Z,8.85
2022-11-25T15:30:31.317Z,8.91
2022-11-25T15:32:59.402Z,8.79
2022-11-25T15:35:28.090Z,8.70
2022-11-25T15:37:55.623Z,8.70
2022-11-25T15:40:36.676Z,8.65
2022-11-25T15:43:07.264Z,8.48
2022-11-25T15:45:39.312Z,8.51
2022-11-25T15:48:15.530Z,8.53
2022-11-25T15:50:43.084Z,8.56
2022-11-25T15:53:25.626Z,8.50
2022-11-25T15:56:00.694Z,8.40
2022-11-25T15:58:28.481Z,8.34
2022-11-25T16:01:08.047Z,8.32
2022-11-25T16:03:36.064Z,8.41
2022-11-25T16:06:04.128Z,8.38
2022-11-25T16:08:34.902Z,8.39
2022-11-25T16:11:15.303Z,8.39
2022-11-25T16:13:42.868Z,8.43
2022-11-25T16:16:25.510Z,8.41
2022-11-25T16:19:15.305Z,8.42
2022-11-25T16:21:45.586Z,8.38
2022-11-25T16:24:20.965Z,8.42
2022-11-25T16:26:52.411Z,8.34
2022-11-25T16:29:21.560Z,8.38
2022-11-25T16:31:50.509Z,8.38
2022-11-25T16:34:20.517Z,8.33
2022-11-25T16:36:48.150Z,8.33
2022-11-25T16:39:15.656Z,8.33
2022-11-25T16:41:45.331Z,8.43
2022-11-25T16:44:18.694Z,8.44
2022-11-25T16:46:46.643Z,8.47
2022-11-25T16:49:16.762Z,8.40
2022-11-25T16:51:44.509Z,8.46
2022-11-25T16:54:12.422Z,8.45
2022-11-25T16:56:41.612Z,8.37
2022-11-25T16:59:12.099Z,8.41
2022-11-25T17:01:39.750Z,8.43
2022-11-25T17:04:08.085Z,8.51
2022-11-25T17:06:37.247Z,8.44
2022-11-25T17:09:05.066Z,8.47
2022-11-25T17:11:35.269Z,8.53
2022-11-25T17:14:05.026Z,8.50
2022-11-25T17:16:32.908Z,8.38
2022-11-25T17:19:01.293Z,8.39
2022-11-25T17:21:29.130Z,8.30
2022-11-25T17:24:02.599Z,8.36
2022-11-25T17:26:36.150Z,8.39
2022-11-25T17:29:05.531Z,8.41
2022-11-25T17:31:33.914Z,8.33
2022-11-25T17:34:01.454Z,8.41
2022-11-25T17:36:28.973Z,8.17
2022-11-25T17:38:57.812Z,8.22
2022-11-25T17:41:26.736Z,8.16
2022-11-25T17:43:54.824Z,8.22
2022-11-25T17:46:24.687Z,8.19
2022-11-25T17:48:52.326Z,8.19
2022-11-25T17:51:19.897Z,8.28
2022-11-25T17:53:48.063Z,8.26
2022-11-25T17:56:24.046Z,8.14
2022-11-25T17:58:52.097Z,8.25
2022-11-25T18:01:20.133Z,8.28
2022-11-25T18:03:49.364Z,8.20
2022-11-25T18:06:16.938Z,8.19
2022-11-25T18:08:44.448Z,8.23
2022-11-25T18:11:16.771Z,8.15
2022-11-25T18:13:47.221Z,8.26
2022-11-25T18:16:16.133Z,8.31
2022-11-25T18:18:43.681Z,8.66
2022-11-25T18:21:12.736Z,8.58
2022-11-25T18:23:40.297Z,8.45
2022-11-25T18:26:11.678Z,8.30
2022-11-25T18:28:39.538Z,8.11
2022-11-25T18:31:08.489Z,8.04
2022-11-25T18:33:36.060Z,7.92
2022-11-25T18:36:03.612Z,7.94
2022-11-25T18:38:31.132Z,7.94
2022-11-25T18:40:59.268Z,7.95
2022-11-25T18:43:27.841Z,7.83
2022-11-25T18:45:55.814Z,7.76
2022-11-25T18:48:26.379Z,7.76
2022-11-25T18:50:57.300Z,7.77
2022-11-25T18:53:25.575Z,7.69
2022-11-25T18:55:53.118Z,7.68
2022-11-25T18:58:22.714Z,7.74
2022-11-25T19:00:51.858Z,7.71
2022-11-25T19:03:21.355Z,7.64
2022-11-25T19:05:51.383Z,7.53
2022-11-25T19:08:19.436Z,7.60
2022-11-25T19:10:51.816Z,7.63
2022-11-25T19:13:23.286Z,7.59
2022-11-25T19:19:57.967Z,7.64
2022-11-25T19:23:01.826Z,7.71
2022-11-25T19:26:07.622Z,7.71
2022-11-25T19:37:33.886Z,7.81
2022-11-25T19:40:13.184Z,7.82
2022-11-25T19:42:57.237Z,7.82
2022-11-25T19:46:02.786Z,7.82
2022-11-25T19:49:05.318Z,8.04
2022-11-25T20:00:02.115Z,7.73
2022-11-25T20:06:56.729Z,7.46
2022-11-25T20:18:22.475Z,7.43
2022-11-25T20:42:13.382Z,7.52
2022-11-25T20:45:01.238Z,7.46
2022-11-25T21:01:32.389Z,6.71
2022-11-25T21:04:49.497Z,6.75
2022-11-25T21:11:42.838Z,6.75
2022-11-25T21:28:56.763Z,6.95
2022-11-25T21:31:55.635Z,6.99
2022-11-25T21:42:37.200Z,6.80
2022-11-25T22:10:36.411Z,5.90
2022-11-25T22:36:35.078Z,5.41
2022-11-25T23:03:43.502Z,5.30
2022-11-25T23:06:11.907Z,5.42
2022-11-25T23:08:39.704Z,5.24
2022-11-25T23:11:07.833Z,5.13
2022-11-25T23:13:35.324Z,5.16
2022-11-25T23:16:05.504Z,5.07
2022-11-25T23:18:38.247Z,4.57
2022-11-25T23:21:06.733Z,4.35
2022-11-25T23:23:34.229Z,4.39
2022-11-25T23:26:01.784Z,4.60
2022-11-25T23:28:29.336Z,4.77
2022-11-25T23:30:58.261Z,4.69
2022-11-25T23:33:29.973Z,4.53
2022-11-25T23:35:58.456Z,4.67
2022-11-25T23:38:27.932Z,4.85
2022-11-25T23:40:55.532Z,4.73
2022-11-25T23:43:23.025Z,4.93
2022-11-25T23:45:53.800Z,4.90
2022-11-25T23:48:24.290Z,4.73
2022-11-25T23:50:55.120Z,4.61
2022-11-25T23:53:25.367Z,4.77
2022-11-25T23:55:53.105Z,4.62
2022-11-25T23:58:22.071Z,4.51
